Terminal Aerodrome Forecast
Issued by NWS Wakefield, VA

Home | Current Version | Previous Version | Text Only | Print | Product List | Glossary On
Versions: 1 2 3 4 5 6 7 8 9 10 11 12 13 14 15 16 17 18 19 20 21 22 23 24 25 26 27 28 29 30 31 32 33 34 35 36 37 38 39 40
000
FTUS41 KAKQ 231909 AAA
TAFRIC
TAF AMD
KRIC 231909Z 2319/2418 03012G20KT 2SM -RA BR BKN009 OVC015
     FM232100 02008KT 5SM -DZ BR OVC007
     FM240300 35010KT P6SM VCSH OVC004
     FM240600 33010KT P6SM OVC005
     FM241400 32013KT P6SM BKN025=

USA.gov is the U.S. government's official web portal to all federal, state and local government web resources and services.